FQNC

Nacala Airport

Nacala, Mozambique
METAR FQNC 161400Z 03012KT 9999 BKN020 30/25 Q1008
Observed Flight Rules
Jan-16 @ 14:00 UTC (5 hours ago) Marginal Visual Flight Rules
Wind Visibility Clouds
30° at 12 knots 10,000+ meters
  • Broken at 2,000' AGL
Temperatures Readings
Current 30°C / 86°F
Dewpoint 25°C / 77°F
Humidity 75%
Altimeter 29.76" Hg
Pressure 1007.92 hPa
Elevation 125
METAR FQNC 161400Z 03012KT 9999 BKN020 30/25 Q1008
Observed Flight Rules
Jan-16 @ 14:00 UTC
(5 hours ago)
MVFR
Wind Visibility
30° at 12 knots 10,000+ meters
Clouds
  • Broken at 2,000' AGL
Temperature Dewpoint
30°C / 86°F 25°C / 77°F
Humidity Altimeter Pressure
75% 29.76" Hg 1007.92 hPa